sensor_id;sensor_type;location;lat;lon;timestamp;temperature;humidity
41904;DHT22;27586;51.124;4.182;2023-04-03T00:01:32;4.90;99.90
41904;DHT22;27586;51.124;4.182;2023-04-03T00:03:57;4.80;99.90
41904;DHT22;27586;51.124;4.182;2023-04-03T00:06:24;4.80;99.90
41904;DHT22;27586;51.124;4.182;2023-04-03T00:08:50;4.80;99.90
41904;DHT22;27586;51.124;4.182;2023-04-03T00:11:17;4.80;99.90
41904;DHT22;27586;51.124;4.182;2023-04-03T00:13:43;4.80;99.90
41904;DHT22;27586;51.124;4.182;2023-04-03T00:16:10;4.70;99.90
41904;DHT22;27586;51.124;4.182;2023-04-03T00:18:37;4.70;99.90
41904;DHT22;27586;51.124;4.182;2023-04-03T00:21:04;4.70;99.90
41904;DHT22;27586;51.124;4.182;2023-04-03T00:23:30;4.70;99.90
41904;DHT22;27586;51.124;4.182;2023-04-03T00:25:55;4.70;99.90
41904;DHT22;27586;51.124;4.182;2023-04-03T00:28:21;4.60;99.90
41904;DHT22;27586;51.124;4.182;2023-04-03T00:30:49;4.70;99.90
41904;DHT22;27586;51.124;4.182;2023-04-03T00:33:15;4.60;99.90
41904;DHT22;27586;51.124;4.182;2023-04-03T00:35:41;4.60;99.90
41904;DHT22;27586;51.124;4.182;2023-04-03T00:38:07;4.70;99.90
41904;DHT22;27586;51.124;4.182;2023-04-03T00:40:36;4.60;99.90
41904;DHT22;27586;51.124;4.182;2023-04-03T00:43:04;4.50;99.90
41904;DHT22;27586;51.124;4.182;2023-04-03T00:45:40;4.50;99.90
41904;DHT22;27586;51.124;4.182;2023-04-03T00:48:08;4.60;99.90
41904;DHT22;27586;51.124;4.182;2023-04-03T00:50:37;4.50;99.90
41904;DHT22;27586;51.124;4.182;2023-04-03T00:53:04;4.60;99.90
41904;DHT22;27586;51.124;4.182;2023-04-03T00:55:32;4.60;99.90
41904;DHT22;27586;51.124;4.182;2023-04-03T00:57:59;4.60;99.90
41904;DHT22;27586;51.124;4.182;2023-04-03T01:00:26;4.60;99.90
41904;DHT22;27586;51.124;4.182;2023-04-03T01:02:52;4.50;99.90
41904;DHT22;27586;51.124;4.182;2023-04-03T01:05:18;4.40;99.90
41904;DHT22;27586;51.124;4.182;2023-04-03T01:07:46;4.30;99.90
41904;DHT22;27586;51.124;4.182;2023-04-03T01:10:14;4.30;99.90
41904;DHT22;27586;51.124;4.182;2023-04-03T01:12:43;4.30;99.90
41904;DHT22;27586;51.124;4.182;2023-04-03T01:15:30;4.30;99.90
41904;DHT22;27586;51.124;4.182;2023-04-03T01:18:00;4.30;99.90
41904;DHT22;27586;51.124;4.182;2023-04-03T01:25:34;4.30;99.90
41904;DHT22;27586;51.124;4.182;2023-04-03T01:28:02;4.30;99.90
41904;DHT22;27586;51.124;4.182;2023-04-03T01:30:33;4.20;99.90
41904;DHT22;27586;51.124;4.182;2023-04-03T01:32:59;4.20;99.90
41904;DHT22;27586;51.124;4.182;2023-04-03T01:35:25;4.20;99.90
41904;DHT22;27586;51.124;4.182;2023-04-03T01:37:51;4.30;99.90
41904;DHT22;27586;51.124;4.182;2023-04-03T01:40:17;4.30;99.90
41904;DHT22;27586;51.124;4.182;2023-04-03T01:42:43;4.20;99.90
41904;DHT22;27586;51.124;4.182;2023-04-03T01:45:09;4.10;99.90
41904;DHT22;27586;51.124;4.182;2023-04-03T01:47:35;4.20;99.90
41904;DHT22;27586;51.124;4.182;2023-04-03T01:50:00;4.20;99.90
41904;DHT22;27586;51.124;4.182;2023-04-03T01:52:26;4.10;99.90
41904;DHT22;27586;51.124;4.182;2023-04-03T01:54:52;4.10;99.90
41904;DHT22;27586;51.124;4.182;2023-04-03T01:57:17;4.10;99.90
41904;DHT22;27586;51.124;4.182;2023-04-03T01:59:43;4.00;99.90
41904;DHT22;27586;51.124;4.182;2023-04-03T02:02:09;4.00;99.90
41904;DHT22;27586;51.124;4.182;2023-04-03T02:04:34;4.10;99.90
41904;DHT22;27586;51.124;4.182;2023-04-03T02:07:00;4.10;99.90
41904;DHT22;27586;51.124;4.182;2023-04-03T02:09:26;4.10;99.90
41904;DHT22;27586;51.124;4.182;2023-04-03T02:11:52;4.10;99.90
41904;DHT22;27586;51.124;4.182;2023-04-03T02:14:18;4.10;99.90
41904;DHT22;27586;51.124;4.182;2023-04-03T02:16:44;4.10;99.90
41904;DHT22;27586;51.124;4.182;2023-04-03T02:19:09;4.10;99.90
41904;DHT22;27586;51.124;4.182;2023-04-03T02:21:35;4.10;99.90
41904;DHT22;27586;51.124;4.182;2023-04-03T02:24:01;4.10;99.90
41904;DHT22;27586;51.124;4.182;2023-04-03T02:26:26;4.10;99.90
41904;DHT22;27586;51.124;4.182;2023-04-03T02:28:52;4.00;99.90
41904;DHT22;27586;51.124;4.182;2023-04-03T02:31:18;4.00;99.90
41904;DHT22;27586;51.124;4.182;2023-04-03T02:33:44;4.00;99.90
41904;DHT22;27586;51.124;4.182;2023-04-03T02:36:10;4.00;99.90
41904;DHT22;27586;51.124;4.182;2023-04-03T02:38:35;3.90;99.90
41904;DHT22;27586;51.124;4.182;2023-04-03T02:41:06;3.90;99.90
41904;DHT22;27586;51.124;4.182;2023-04-03T02:43:32;3.90;99.90
41904;DHT22;27586;51.124;4.182;2023-04-03T02:45:58;3.80;99.90
41904;DHT22;27586;51.124;4.182;2023-04-03T02:48:24;3.80;99.90
41904;DHT22;27586;51.124;4.182;2023-04-03T02:50:50;3.80;99.90
41904;DHT22;27586;51.124;4.182;2023-04-03T02:53:16;3.80;99.90
41904;DHT22;27586;51.124;4.182;2023-04-03T02:55:42;3.80;99.90
41904;DHT22;27586;51.124;4.182;2023-04-03T02:58:08;3.80;99.90
41904;DHT22;27586;51.124;4.182;2023-04-03T03:00:33;3.80;99.90
41904;DHT22;27586;51.124;4.182;2023-04-03T03:02:59;3.90;99.90
41904;DHT22;27586;51.124;4.182;2023-04-03T03:05:26;3.80;99.90
41904;DHT22;27586;51.124;4.182;2023-04-03T03:07:51;3.90;99.90
41904;DHT22;27586;51.124;4.182;2023-04-03T03:10:17;3.90;99.90
41904;DHT22;27586;51.124;4.182;2023-04-03T03:12:43;3.90;99.90
41904;DHT22;27586;51.124;4.182;2023-04-03T03:15:09;3.80;99.90
41904;DHT22;27586;51.124;4.182;2023-04-03T03:17:35;3.90;99.90
41904;DHT22;27586;51.124;4.182;2023-04-03T03:20:02;3.80;99.90
41904;DHT22;27586;51.124;4.182;2023-04-03T03:22:28;3.80;99.90
41904;DHT22;27586;51.124;4.182;2023-04-03T03:24:54;3.80;99.90
41904;DHT22;27586;51.124;4.182;2023-04-03T03:27:20;3.80;99.90
41904;DHT22;27586;51.124;4.182;2023-04-03T03:29:46;3.70;99.90
41904;DHT22;27586;51.124;4.182;2023-04-03T03:32:12;3.70;99.90
41904;DHT22;27586;51.124;4.182;2023-04-03T03:34:37;3.70;99.90
41904;DHT22;27586;51.124;4.182;2023-04-03T03:37:03;3.70;99.90
41904;DHT22;27586;51.124;4.182;2023-04-03T03:39:29;3.80;99.90
41904;DHT22;27586;51.124;4.182;2023-04-03T03:41:55;3.80;99.90
41904;DHT22;27586;51.124;4.182;2023-04-03T03:44:21;3.80;99.90
41904;DHT22;27586;51.124;4.182;2023-04-03T03:46:47;3.80;99.90
41904;DHT22;27586;51.124;4.182;2023-04-03T03:49:13;3.80;99.90
41904;DHT22;27586;51.124;4.182;2023-04-03T03:51:39;3.80;99.90
41904;DHT22;27586;51.124;4.182;2023-04-03T03:54:05;3.80;99.90
41904;DHT22;27586;51.124;4.182;2023-04-03T03:56:31;3.80;99.90
41904;DHT22;27586;51.124;4.182;2023-04-03T03:58:56;3.70;99.90
41904;DHT22;27586;51.124;4.182;2023-04-03T04:01:23;3.70;99.90
41904;DHT22;27586;51.124;4.182;2023-04-03T04:03:50;3.70;99.90
41904;DHT22;27586;51.124;4.182;2023-04-03T04:06:16;3.70;99.90
41904;DHT22;27586;51.124;4.182;2023-04-03T04:08:41;3.70;99.90
41904;DHT22;27586;51.124;4.182;2023-04-03T04:11:08;3.60;99.90
41904;DHT22;27586;51.124;4.182;2023-04-03T04:13:34;3.60;99.90
41904;DHT22;27586;51.124;4.182;2023-04-03T04:16:00;3.60;99.90
41904;DHT22;27586;51.124;4.182;2023-04-03T04:18:26;3.50;99.90
41904;DHT22;27586;51.124;4.182;2023-04-03T04:20:51;3.50;99.90
41904;DHT22;27586;51.124;4.182;2023-04-03T04:23:18;3.40;99.90
41904;DHT22;27586;51.124;4.182;2023-04-03T04:25:48;3.40;99.90
41904;DHT22;27586;51.124;4.182;2023-04-03T04:28:14;3.40;99.90
41904;DHT22;27586;51.124;4.182;2023-04-03T04:30:40;3.40;99.90
41904;DHT22;27586;51.124;4.182;2023-04-03T04:33:06;3.30;99.90
41904;DHT22;27586;51.124;4.182;2023-04-03T04:35:32;3.30;99.90
41904;DHT22;27586;51.124;4.182;2023-04-03T04:37:58;3.30;99.90
41904;DHT22;27586;51.124;4.182;2023-04-03T04:40:24;3.20;99.90
41904;DHT22;27586;51.124;4.182;2023-04-03T04:42:50;3.20;99.90
41904;DHT22;27586;51.124;4.182;2023-04-03T04:45:15;3.20;99.90
41904;DHT22;27586;51.124;4.182;2023-04-03T04:47:41;3.20;99.90
41904;DHT22;27586;51.124;4.182;2023-04-03T04:50:07;3.30;99.90
41904;DHT22;27586;51.124;4.182;2023-04-03T04:52:33;3.30;99.90
41904;DHT22;27586;51.124;4.182;2023-04-03T04:54:59;3.20;99.90
41904;DHT22;27586;51.124;4.182;2023-04-03T04:57:25;3.20;99.90
41904;DHT22;27586;51.124;4.182;2023-04-03T04:59:50;3.20;99.90
41904;DHT22;27586;51.124;4.182;2023-04-03T05:02:16;3.20;99.90
41904;DHT22;27586;51.124;4.182;2023-04-03T05:04:42;3.20;99.90
41904;DHT22;27586;51.124;4.182;2023-04-03T05:07:08;3.20;99.90
41904;DHT22;27586;51.124;4.182;2023-04-03T05:09:33;3.10;99.90
41904;DHT22;27586;51.124;4.182;2023-04-03T05:11:59;3.10;99.90
41904;DHT22;27586;51.124;4.182;2023-04-03T05:14:25;3.10;99.90
41904;DHT22;27586;51.124;4.182;2023-04-03T05:16:50;3.20;99.90
41904;DHT22;27586;51.124;4.182;2023-04-03T05:19:20;3.20;99.90
41904;DHT22;27586;51.124;4.182;2023-04-03T05:21:46;3.20;99.90
41904;DHT22;27586;51.124;4.182;2023-04-03T05:24:12;3.20;99.90
41904;DHT22;27586;51.124;4.182;2023-04-03T05:26:38;3.20;99.90
41904;DHT22;27586;51.124;4.182;2023-04-03T05:29:04;3.20;99.90
41904;DHT22;27586;51.124;4.182;2023-04-03T05:31:30;3.20;99.90
41904;DHT22;27586;51.124;4.182;2023-04-03T05:33:55;3.20;99.90
41904;DHT22;27586;51.124;4.182;2023-04-03T05:36:21;3.20;99.90
41904;DHT22;27586;51.124;4.182;2023-04-03T05:38:47;3.20;99.90
41904;DHT22;27586;51.124;4.182;2023-04-03T05:41:14;3.20;99.90
41904;DHT22;27586;51.124;4.182;2023-04-03T05:43:41;3.30;99.90
41904;DHT22;27586;51.124;4.182;2023-04-03T05:46:14;3.30;99.90
41904;DHT22;27586;51.124;4.182;2023-04-03T05:48:41;3.30;99.90
41904;DHT22;27586;51.124;4.182;2023-04-03T05:51:19;3.20;99.90
41904;DHT22;27586;51.124;4.182;2023-04-03T05:53:47;3.20;99.90
41904;DHT22;27586;51.124;4.182;2023-04-03T05:56:13;3.30;99.90
41904;DHT22;27586;51.124;4.182;2023-04-03T05:58:39;3.30;99.90
41904;DHT22;27586;51.124;4.182;2023-04-03T06:01:05;3.30;99.90
41904;DHT22;27586;51.124;4.182;2023-04-03T06:03:31;3.40;99.90
41904;DHT22;27586;51.124;4.182;2023-04-03T06:05:57;3.30;99.90
41904;DHT22;27586;51.124;4.182;2023-04-03T06:08:23;3.30;99.90
41904;DHT22;27586;51.124;4.182;2023-04-03T06:10:49;3.40;99.90
41904;DHT22;27586;51.124;4.182;2023-04-03T06:13:16;3.50;99.90
41904;DHT22;27586;51.124;4.182;2023-04-03T06:15:42;3.60;99.90
41904;DHT22;27586;51.124;4.182;2023-04-03T06:18:07;3.80;99.90
41904;DHT22;27586;51.124;4.182;2023-04-03T06:20:33;3.80;99.90
41904;DHT22;27586;51.124;4.182;2023-04-03T06:22:59;3.90;99.90
41904;DHT22;27586;51.124;4.182;2023-04-03T06:25:25;4.10;99.90
41904;DHT22;27586;51.124;4.182;2023-04-03T06:27:51;4.20;99.90
41904;DHT22;27586;51.124;4.182;2023-04-03T06:30:17;4.40;99.90
41904;DHT22;27586;51.124;4.182;2023-04-03T06:32:43;4.40;99.90
41904;DHT22;27586;51.124;4.182;2023-04-03T06:35:09;4.50;99.90
41904;DHT22;27586;51.124;4.182;2023-04-03T06:37:35;4.60;99.90
41904;DHT22;27586;51.124;4.182;2023-04-03T06:40:01;4.60;99.90
41904;DHT22;27586;51.124;4.182;2023-04-03T06:42:27;4.60;99.90
41904;DHT22;27586;51.124;4.182;2023-04-03T06:44:52;4.70;99.90
41904;DHT22;27586;51.124;4.182;2023-04-03T06:47:18;4.70;99.90
41904;DHT22;27586;51.124;4.182;2023-04-03T06:49:45;4.80;99.90
41904;DHT22;27586;51.124;4.182;2023-04-03T06:52:10;4.70;99.90
41904;DHT22;27586;51.124;4.182;2023-04-03T06:54:39;4.70;99.90
41904;DHT22;27586;51.124;4.182;2023-04-03T06:57:05;4.70;99.90
41904;DHT22;27586;51.124;4.182;2023-04-03T06:59:30;4.60;99.90
41904;DHT22;27586;51.124;4.182;2023-04-03T07:01:56;4.80;99.90
41904;DHT22;27586;51.124;4.182;2023-04-03T07:04:23;5.10;99.90
41904;DHT22;27586;51.124;4.182;2023-04-03T07:06:49;5.20;99.90
41904;DHT22;27586;51.124;4.182;2023-04-03T07:09:15;5.30;99.90
41904;DHT22;27586;51.124;4.182;2023-04-03T07:11:41;5.40;99.90
41904;DHT22;27586;51.124;4.182;2023-04-03T07:14:07;5.40;99.90
41904;DHT22;27586;51.124;4.182;2023-04-03T07:16:34;5.50;99.90
41904;DHT22;27586;51.124;4.182;2023-04-03T07:19:01;5.60;99.90
41904;DHT22;27586;51.124;4.182;2023-04-03T07:21:27;5.70;99.90
41904;DHT22;27586;51.124;4.182;2023-04-03T07:23:53;5.80;99.90
41904;DHT22;27586;51.124;4.182;2023-04-03T07:26:19;5.80;99.90
41904;DHT22;27586;51.124;4.182;2023-04-03T07:28:46;5.90;99.90
41904;DHT22;27586;51.124;4.182;2023-04-03T07:31:14;6.00;99.90
41904;DHT22;27586;51.124;4.182;2023-04-03T07:33:41;6.30;99.90
41904;DHT22;27586;51.124;4.182;2023-04-03T07:36:09;6.40;99.90
41904;DHT22;27586;51.124;4.182;2023-04-03T07:38:36;6.40;99.90
41904;DHT22;27586;51.124;4.182;2023-04-03T07:41:03;6.40;99.90
41904;DHT22;27586;51.124;4.182;2023-04-03T07:43:29;6.70;99.90
41904;DHT22;27586;51.124;4.182;2023-04-03T07:45:54;6.50;99.90
41904;DHT22;27586;51.124;4.182;2023-04-03T07:48:25;6.50;99.90
41904;DHT22;27586;51.124;4.182;2023-04-03T07:50:51;6.90;99.90
41904;DHT22;27586;51.124;4.182;2023-04-03T07:53:17;7.10;99.90
41904;DHT22;27586;51.124;4.182;2023-04-03T07:55:46;7.00;99.90
41904;DHT22;27586;51.124;4.182;2023-04-03T07:58:16;6.90;99.90
41904;DHT22;27586;51.124;4.182;2023-04-03T08:00:42;6.80;99.90
41904;DHT22;27586;51.124;4.182;2023-04-03T08:03:10;6.90;99.90
41904;DHT22;27586;51.124;4.182;2023-04-03T08:05:37;6.90;99.90
41904;DHT22;27586;51.124;4.182;2023-04-03T08:08:04;6.80;99.90
41904;DHT22;27586;51.124;4.182;2023-04-03T08:10:30;7.00;99.90
41904;DHT22;27586;51.124;4.182;2023-04-03T08:12:56;7.20;99.90
41904;DHT22;27586;51.124;4.182;2023-04-03T08:15:22;7.40;99.90
41904;DHT22;27586;51.124;4.182;2023-04-03T08:17:48;7.50;99.90
41904;DHT22;27586;51.124;4.182;2023-04-03T08:20:13;7.70;99.90
41904;DHT22;27586;51.124;4.182;2023-04-03T08:22:39;7.80;99.90
41904;DHT22;27586;51.124;4.182;2023-04-03T08:25:07;7.70;99.90
41904;DHT22;27586;51.124;4.182;2023-04-03T08:27:33;7.80;99.90
41904;DHT22;27586;51.124;4.182;2023-04-03T08:29:59;8.00;99.90
41904;DHT22;27586;51.124;4.182;2023-04-03T08:32:25;8.00;99.90
41904;DHT22;27586;51.124;4.182;2023-04-03T08:34:51;8.00;99.90
41904;DHT22;27586;51.124;4.182;2023-04-03T08:37:16;8.10;99.90
41904;DHT22;27586;51.124;4.182;2023-04-03T08:39:43;8.20;99.90
41904;DHT22;27586;51.124;4.182;2023-04-03T08:45:16;8.30;99.90
41904;DHT22;27586;51.124;4.182;2023-04-03T08:48:01;8.50;99.90
41904;DHT22;27586;51.124;4.182;2023-04-03T08:50:37;8.80;99.90
41904;DHT22;27586;51.124;4.182;2023-04-03T08:53:05;9.00;99.90
41904;DHT22;27586;51.124;4.182;2023-04-03T08:55:50;9.20;99.90
41904;DHT22;27586;51.124;4.182;2023-04-03T08:58:24;9.50;99.90
41904;DHT22;27586;51.124;4.182;2023-04-03T09:00:58;9.00;99.90
41904;DHT22;27586;51.124;4.182;2023-04-03T09:03:24;9.10;99.90
41904;DHT22;27586;51.124;4.182;2023-04-03T09:06:00;9.30;99.90
41904;DHT22;27586;51.124;4.182;2023-04-03T09:08:35;9.20;99.90
41904;DHT22;27586;51.124;4.182;2023-04-03T09:11:23;9.40;99.90
41904;DHT22;27586;51.124;4.182;2023-04-03T09:13:57;9.60;99.90
41904;DHT22;27586;51.124;4.182;2023-04-03T09:16:35;9.60;99.90
41904;DHT22;27586;51.124;4.182;2023-04-03T09:19:22;9.30;99.90
41904;DHT22;27586;51.124;4.182;2023-04-03T09:21:49;9.10;99.90
41904;DHT22;27586;51.124;4.182;2023-04-03T09:24:16;9.20;99.90
41904;DHT22;27586;51.124;4.182;2023-04-03T09:26:52;9.20;99.90
41904;DHT22;27586;51.124;4.182;2023-04-03T09:29:21;9.30;99.90
41904;DHT22;27586;51.124;4.182;2023-04-03T09:31:59;9.30;99.90
41904;DHT22;27586;51.124;4.182;2023-04-03T09:36:56;8.80;99.90
41904;DHT22;27586;51.124;4.182;2023-04-03T09:39:24;8.60;99.90
41904;DHT22;27586;51.124;4.182;2023-04-03T09:42:16;9.10;99.90
41904;DHT22;27586;51.124;4.182;2023-04-03T09:44:56;9.50;99.90
41904;DHT22;27586;51.124;4.182;2023-04-03T09:47:32;9.60;99.70
41904;DHT22;27586;51.124;4.182;2023-04-03T09:52:41;9.90;99.80
41904;DHT22;27586;51.124;4.182;2023-04-03T09:57:45;9.80;98.60
41904;DHT22;27586;51.124;4.182;2023-04-03T10:00:25;10.10;98.90
41904;DHT22;27586;51.124;4.182;2023-04-03T10:02:56;10.10;97.60
41904;DHT22;27586;51.124;4.182;2023-04-03T10:05:40;9.90;97.90
41904;DHT22;27586;51.124;4.182;2023-04-03T10:10:48;9.80;98.70
41904;DHT22;27586;51.124;4.182;2023-04-03T10:13:17;10.00;98.40
41904;DHT22;27586;51.124;4.182;2023-04-03T10:15:56;10.20;98.00
41904;DHT22;27586;51.124;4.182;2023-04-03T10:20:59;10.10;96.70
41904;DHT22;27586;51.124;4.182;2023-04-03T10:23:37;10.20;95.90
41904;DHT22;27586;51.124;4.182;2023-04-03T10:34:26;10.70;95.30
41904;DHT22;27586;51.124;4.182;2023-04-03T10:39:44;10.30;94.40
41904;DHT22;27586;51.124;4.182;2023-04-03T10:42:46;10.30;93.10
41904;DHT22;27586;51.124;4.182;2023-04-03T10:45:53;10.40;93.60
41904;DHT22;27586;51.124;4.182;2023-04-03T10:48:31;10.60;94.60
41904;DHT22;27586;51.124;4.182;2023-04-03T10:51:11;10.70;92.60
41904;DHT22;27586;51.124;4.182;2023-04-03T10:56:51;10.70;90.50
41904;DHT22;27586;51.124;4.182;2023-04-03T11:01:57;10.90;88.20
41904;DHT22;27586;51.124;4.182;2023-04-03T11:04:28;11.00;90.70
41904;DHT22;27586;51.124;4.182;2023-04-03T11:07:10;10.90;85.40
41904;DHT22;27586;51.124;4.182;2023-04-03T11:09:41;11.00;90.00
41904;DHT22;27586;51.124;4.182;2023-04-03T11:14:40;11.00;86.20
41904;DHT22;27586;51.124;4.182;2023-04-03T11:17:37;11.30;87.90
41904;DHT22;27586;51.124;4.182;2023-04-03T11:20:26;11.50;83.80
41904;DHT22;27586;51.124;4.182;2023-04-03T11:23:05;11.10;86.70
41904;DHT22;27586;51.124;4.182;2023-04-03T11:25:36;11.30;81.70
41904;DHT22;27586;51.124;4.182;2023-04-03T11:28:06;11.10;77.90
41904;DHT22;27586;51.124;4.182;2023-04-03T11:35:58;11.20;81.00
41904;DHT22;27586;51.124;4.182;2023-04-03T11:38:36;11.10;77.00
41904;DHT22;27586;51.124;4.182;2023-04-03T11:41:05;11.00;74.50
41904;DHT22;27586;51.124;4.182;2023-04-03T11:43:33;10.90;74.60
41904;DHT22;27586;51.124;4.182;2023-04-03T11:50:54;11.10;76.90
41904;DHT22;27586;51.124;4.182;2023-04-03T11:53:35;11.10;78.90
41904;DHT22;27586;51.124;4.182;2023-04-03T11:56:03;11.20;78.70
41904;DHT22;27586;51.124;4.182;2023-04-03T11:58:34;11.10;77.80
41904;DHT22;27586;51.124;4.182;2023-04-03T12:01:12;11.10;75.30
41904;DHT22;27586;51.124;4.182;2023-04-03T12:04:06;11.20;80.30
41904;DHT22;27586;51.124;4.182;2023-04-03T12:08:57;11.30;76.10
41904;DHT22;27586;51.124;4.182;2023-04-03T12:11:25;11.30;71.90
41904;DHT22;27586;51.124;4.182;2023-04-03T12:16:33;11.20;72.80
41904;DHT22;27586;51.124;4.182;2023-04-03T12:19:39;11.20;73.30
41904;DHT22;27586;51.124;4.182;2023-04-03T12:22:15;11.30;71.50
41904;DHT22;27586;51.124;4.182;2023-04-03T12:24:50;11.30;72.00
41904;DHT22;27586;51.124;4.182;2023-04-03T12:27:21;11.50;71.10
41904;DHT22;27586;51.124;4.182;2023-04-03T12:29:55;11.40;68.90
41904;DHT22;27586;51.124;4.182;2023-04-03T12:35:29;11.10;68.70
41904;DHT22;27586;51.124;4.182;2023-04-03T12:48:52;11.20;64.70
41904;DHT22;27586;51.124;4.182;2023-04-03T12:51:42;11.30;63.80
41904;DHT22;27586;51.124;4.182;2023-04-03T12:54:26;11.00;63.40
41904;DHT22;27586;51.124;4.182;2023-04-03T12:57:08;11.00;63.70
41904;DHT22;27586;51.124;4.182;2023-04-03T12:59:34;11.10;62.80
41904;DHT22;27586;51.124;4.182;2023-04-03T13:02:01;11.20;63.30
41904;DHT22;27586;51.124;4.182;2023-04-03T13:04:28;11.30;65.60
41904;DHT22;27586;51.124;4.182;2023-04-03T13:06:54;11.50;63.90
41904;DHT22;27586;51.124;4.182;2023-04-03T13:09:27;11.40;62.70
41904;DHT22;27586;51.124;4.182;2023-04-03T13:12:14;11.40;63.00
41904;DHT22;27586;51.124;4.182;2023-04-03T13:14:40;11.20;61.10
41904;DHT22;27586;51.124;4.182;2023-04-03T13:17:16;11.20;59.30
41904;DHT22;27586;51.124;4.182;2023-04-03T13:19:43;11.30;61.30
41904;DHT22;27586;51.124;4.182;2023-04-03T13:22:32;11.40;62.00
41904;DHT22;27586;51.124;4.182;2023-04-03T13:25:02;11.40;61.00
41904;DHT22;27586;51.124;4.182;2023-04-03T13:27:31;11.40;61.30
41904;DHT22;27586;51.124;4.182;2023-04-03T13:29:59;11.40;62.00
41904;DHT22;27586;51.124;4.182;2023-04-03T13:32:27;11.30;61.80
41904;DHT22;27586;51.124;4.182;2023-04-03T13:34:53;11.50;61.60
41904;DHT22;27586;51.124;4.182;2023-04-03T13:37:30;11.30;60.00
41904;DHT22;27586;51.124;4.182;2023-04-03T13:40:16;11.40;60.50
41904;DHT22;27586;51.124;4.182;2023-04-03T13:42:42;11.30;60.60
41904;DHT22;27586;51.124;4.182;2023-04-03T13:45:26;11.30;62.40
41904;DHT22;27586;51.124;4.182;2023-04-03T13:48:08;11.30;62.10
41904;DHT22;27586;51.124;4.182;2023-04-03T13:53:22;11.30;64.10
41904;DHT22;27586;51.124;4.182;2023-04-03T13:58:29;11.10;62.20
41904;DHT22;27586;51.124;4.182;2023-04-03T14:04:32;11.10;64.10
41904;DHT22;27586;51.124;4.182;2023-04-03T14:06:31;11.10;64.50
41904;DHT22;27586;51.124;4.182;2023-04-03T14:08:56;11.20;65.80
41904;DHT22;27586;51.124;4.182;2023-04-03T14:11:26;11.30;63.50
41904;DHT22;27586;51.124;4.182;2023-04-03T14:14:02;11.30;66.80
41904;DHT22;27586;51.124;4.182;2023-04-03T14:16:33;11.10;63.20
41904;DHT22;27586;51.124;4.182;2023-04-03T14:19:02;10.90;63.30
41904;DHT22;27586;51.124;4.182;2023-04-03T14:21:28;11.00;62.60
41904;DHT22;27586;51.124;4.182;2023-04-03T14:23:53;11.00;62.90
41904;DHT22;27586;51.124;4.182;2023-04-03T14:26:22;11.00;63.40
41904;DHT22;27586;51.124;4.182;2023-04-03T14:28:51;11.10;63.80
41904;DHT22;27586;51.124;4.182;2023-04-03T14:31:18;10.90;62.80
41904;DHT22;27586;51.124;4.182;2023-04-03T14:33:45;10.90;63.80
41904;DHT22;27586;51.124;4.182;2023-04-03T14:36:15;10.80;63.00
41904;DHT22;27586;51.124;4.182;2023-04-03T14:38:42;10.90;65.40
41904;DHT22;27586;51.124;4.182;2023-04-03T14:41:12;11.00;64.90
41904;DHT22;27586;51.124;4.182;2023-04-03T14:43:38;11.00;62.00
41904;DHT22;27586;51.124;4.182;2023-04-03T14:46:04;10.90;63.30
41904;DHT22;27586;51.124;4.182;2023-04-03T14:48:30;10.90;63.70
41904;DHT22;27586;51.124;4.182;2023-04-03T14:50:56;11.00;64.10
41904;DHT22;27586;51.124;4.182;2023-04-03T14:53:22;11.00;64.20
41904;DHT22;27586;51.124;4.182;2023-04-03T14:55:50;10.80;65.20
41904;DHT22;27586;51.124;4.182;2023-04-03T14:58:18;10.80;65.80
41904;DHT22;27586;51.124;4.182;2023-04-03T15:00:44;10.70;65.80
41904;DHT22;27586;51.124;4.182;2023-04-03T15:03:16;10.80;65.00
41904;DHT22;27586;51.124;4.182;2023-04-03T15:05:43;10.90;65.20
41904;DHT22;27586;51.124;4.182;2023-04-03T15:08:21;11.00;63.70
41904;DHT22;27586;51.124;4.182;2023-04-03T15:10:47;11.00;64.00
41904;DHT22;27586;51.124;4.182;2023-04-03T15:13:14;11.00;64.10
41904;DHT22;27586;51.124;4.182;2023-04-03T15:15:40;11.00;63.70
41904;DHT22;27586;51.124;4.182;2023-04-03T15:18:06;11.00;62.70
41904;DHT22;27586;51.124;4.182;2023-04-03T15:20:32;11.00;64.00
41904;DHT22;27586;51.124;4.182;2023-04-03T15:23:00;10.80;62.70
41904;DHT22;27586;51.124;4.182;2023-04-03T15:25:29;10.60;62.70
41904;DHT22;27586;51.124;4.182;2023-04-03T15:27:56;10.40;62.30
41904;DHT22;27586;51.124;4.182;2023-04-03T15:30:22;10.50;63.20
41904;DHT22;27586;51.124;4.182;2023-04-03T15:32:48;10.60;63.70
41904;DHT22;27586;51.124;4.182;2023-04-03T15:35:14;10.50;62.40
41904;DHT22;27586;51.124;4.182;2023-04-03T15:37:40;10.60;63.60
41904;DHT22;27586;51.124;4.182;2023-04-03T15:40:07;10.60;63.30
41904;DHT22;27586;51.124;4.182;2023-04-03T15:42:33;10.70;63.80
41904;DHT22;27586;51.124;4.182;2023-04-03T15:44:59;10.70;63.10
41904;DHT22;27586;51.124;4.182;2023-04-03T15:47:25;10.70;61.60
41904;DHT22;27586;51.124;4.182;2023-04-03T15:49:52;10.60;61.70
41904;DHT22;27586;51.124;4.182;2023-04-03T15:52:18;10.50;60.70
41904;DHT22;27586;51.124;4.182;2023-04-03T15:54:44;10.50;61.80
41904;DHT22;27586;51.124;4.182;2023-04-03T15:57:09;10.40;61.40
41904;DHT22;27586;51.124;4.182;2023-04-03T15:59:35;10.30;62.50
41904;DHT22;27586;51.124;4.182;2023-04-03T16:02:01;10.40;62.80
41904;DHT22;27586;51.124;4.182;2023-04-03T16:04:29;10.50;63.10
41904;DHT22;27586;51.124;4.182;2023-04-03T16:06:55;10.40;61.30
41904;DHT22;27586;51.124;4.182;2023-04-03T16:09:21;10.50;61.60
41904;DHT22;27586;51.124;4.182;2023-04-03T16:11:46;10.50;62.40
41904;DHT22;27586;51.124;4.182;2023-04-03T16:14:12;10.40;61.30
41904;DHT22;27586;51.124;4.182;2023-04-03T16:16:38;10.50;62.90
41904;DHT22;27586;51.124;4.182;2023-04-03T16:19:04;10.50;63.30
41904;DHT22;27586;51.124;4.182;2023-04-03T16:21:31;10.30;63.10
41904;DHT22;27586;51.124;4.182;2023-04-03T16:23:58;10.40;64.00
41904;DHT22;27586;51.124;4.182;2023-04-03T16:26:24;10.40;63.50
41904;DHT22;27586;51.124;4.182;2023-04-03T16:28:51;10.40;65.20
41904;DHT22;27586;51.124;4.182;2023-04-03T16:31:16;10.30;65.50
41904;DHT22;27586;51.124;4.182;2023-04-03T16:33:42;10.30;64.90
41904;DHT22;27586;51.124;4.182;2023-04-03T16:36:08;10.30;66.30
41904;DHT22;27586;51.124;4.182;2023-04-03T16:38:35;10.20;67.70
41904;DHT22;27586;51.124;4.182;2023-04-03T16:41:00;10.20;66.50
41904;DHT22;27586;51.124;4.182;2023-04-03T16:43:33;10.20;67.10
41904;DHT22;27586;51.124;4.182;2023-04-03T16:45:59;10.20;66.70
41904;DHT22;27586;51.124;4.182;2023-04-03T16:48:27;10.20;66.00
41904;DHT22;27586;51.124;4.182;2023-04-03T16:50:53;10.20;66.90
41904;DHT22;27586;51.124;4.182;2023-04-03T16:53:22;10.10;65.70
41904;DHT22;27586;51.124;4.182;2023-04-03T16:55:49;10.10;65.90
41904;DHT22;27586;51.124;4.182;2023-04-03T16:58:15;10.10;66.00
41904;DHT22;27586;51.124;4.182;2023-04-03T17:00:41;10.10;68.10
41904;DHT22;27586;51.124;4.182;2023-04-03T17:03:07;10.20;67.30
41904;DHT22;27586;51.124;4.182;2023-04-03T17:05:33;10.10;66.70
41904;DHT22;27586;51.124;4.182;2023-04-03T17:07:59;10.00;67.10